sensor_id;sensor_type;location;lat;lon;timestamp;temperature;humidity
31765;DHT22;18338;53.240;8.798;2023-03-14T00:01:14;11.00;99.90
31765;DHT22;18338;53.240;8.798;2023-03-14T00:03:41;11.10;99.90
31765;DHT22;18338;53.240;8.798;2023-03-14T00:06:08;11.10;99.90
31765;DHT22;18338;53.240;8.798;2023-03-14T00:08:35;11.30;99.90
31765;DHT22;18338;53.240;8.798;2023-03-14T00:11:13;11.30;99.90
31765;DHT22;18338;53.240;8.798;2023-03-14T00:13:41;11.30;99.90
31765;DHT22;18338;53.240;8.798;2023-03-14T00:16:10;11.20;99.90
31765;DHT22;18338;53.240;8.798;2023-03-14T00:18:38;11.20;99.90
31765;DHT22;18338;53.240;8.798;2023-03-14T00:21:07;11.00;99.90
31765;DHT22;18338;53.240;8.798;2023-03-14T00:23:36;10.90;99.90
31765;DHT22;18338;53.240;8.798;2023-03-14T00:26:06;10.80;99.90
31765;DHT22;18338;53.240;8.798;2023-03-14T00:28:33;10.70;99.90
31765;DHT22;18338;53.240;8.798;2023-03-14T00:31:06;10.70;99.90
31765;DHT22;18338;53.240;8.798;2023-03-14T00:33:33;10.80;99.90
31765;DHT22;18338;53.240;8.798;2023-03-14T00:36:02;10.70;99.90
31765;DHT22;18338;53.240;8.798;2023-03-14T00:38:31;10.70;99.90
31765;DHT22;18338;53.240;8.798;2023-03-14T00:40:59;10.70;99.90
31765;DHT22;18338;53.240;8.798;2023-03-14T00:43:25;10.60;99.90
31765;DHT22;18338;53.240;8.798;2023-03-14T00:45:52;10.60;99.90
31765;DHT22;18338;53.240;8.798;2023-03-14T00:48:20;10.70;99.90
31765;DHT22;18338;53.240;8.798;2023-03-14T00:50:46;10.60;99.90
31765;DHT22;18338;53.240;8.798;2023-03-14T00:53:13;10.60;99.90
31765;DHT22;18338;53.240;8.798;2023-03-14T00:55:41;10.50;99.90
31765;DHT22;18338;53.240;8.798;2023-03-14T00:58:11;10.50;99.90
31765;DHT22;18338;53.240;8.798;2023-03-14T01:00:39;10.30;99.90
31765;DHT22;18338;53.240;8.798;2023-03-14T01:03:06;10.30;99.90
31765;DHT22;18338;53.240;8.798;2023-03-14T01:05:33;10.20;99.90
31765;DHT22;18338;53.240;8.798;2023-03-14T01:07:59;10.20;99.90
31765;DHT22;18338;53.240;8.798;2023-03-14T01:10:26;10.20;99.90
31765;DHT22;18338;53.240;8.798;2023-03-14T01:12:54;10.20;99.90
31765;DHT22;18338;53.240;8.798;2023-03-14T01:15:21;10.20;99.90
31765;DHT22;18338;53.240;8.798;2023-03-14T01:17:48;10.10;99.90
31765;DHT22;18338;53.240;8.798;2023-03-14T01:20:16;10.10;99.90
31765;DHT22;18338;53.240;8.798;2023-03-14T01:22:43;10.00;99.90
31765;DHT22;18338;53.240;8.798;2023-03-14T01:25:13;10.00;99.90
31765;DHT22;18338;53.240;8.798;2023-03-14T01:27:40;10.10;99.90
31765;DHT22;18338;53.240;8.798;2023-03-14T01:30:07;10.10;99.90
31765;DHT22;18338;53.240;8.798;2023-03-14T01:32:35;10.10;99.90
31765;DHT22;18338;53.240;8.798;2023-03-14T01:35:03;10.10;99.90
31765;DHT22;18338;53.240;8.798;2023-03-14T01:37:29;10.20;99.90
31765;DHT22;18338;53.240;8.798;2023-03-14T01:39:56;10.20;99.90
31765;DHT22;18338;53.240;8.798;2023-03-14T01:42:23;10.30;99.90
31765;DHT22;18338;53.240;8.798;2023-03-14T01:44:56;10.30;99.90
31765;DHT22;18338;53.240;8.798;2023-03-14T01:47:24;10.40;99.90
31765;DHT22;18338;53.240;8.798;2023-03-14T01:50:04;10.40;99.90
31765;DHT22;18338;53.240;8.798;2023-03-14T01:52:40;10.60;99.90
31765;DHT22;18338;53.240;8.798;2023-03-14T01:55:19;10.70;99.90
31765;DHT22;18338;53.240;8.798;2023-03-14T01:57:51;10.60;99.90
31765;DHT22;18338;53.240;8.798;2023-03-14T02:00:23;10.60;99.90
31765;DHT22;18338;53.240;8.798;2023-03-14T02:02:53;10.80;99.90
31765;DHT22;18338;53.240;8.798;2023-03-14T02:05:27;10.90;99.90
31765;DHT22;18338;53.240;8.798;2023-03-14T02:07:59;10.90;99.90
31765;DHT22;18338;53.240;8.798;2023-03-14T02:10:30;10.90;99.90
31765;DHT22;18338;53.240;8.798;2023-03-14T02:13:00;10.90;99.90
31765;DHT22;18338;53.240;8.798;2023-03-14T02:15:28;10.80;99.90
31765;DHT22;18338;53.240;8.798;2023-03-14T02:17:55;10.80;99.90
31765;DHT22;18338;53.240;8.798;2023-03-14T02:23:01;10.80;99.90
31765;DHT22;18338;53.240;8.798;2023-03-14T02:25:46;10.80;99.90
31765;DHT22;18338;53.240;8.798;2023-03-14T02:28:14;10.80;99.90
31765;DHT22;18338;53.240;8.798;2023-03-14T02:30:42;10.90;99.90
31765;DHT22;18338;53.240;8.798;2023-03-14T02:33:15;10.90;99.90
31765;DHT22;18338;53.240;8.798;2023-03-14T02:35:51;10.80;99.90
31765;DHT22;18338;53.240;8.798;2023-03-14T02:38:34;10.80;99.90
31765;DHT22;18338;53.240;8.798;2023-03-14T02:41:03;10.80;99.90
31765;DHT22;18338;53.240;8.798;2023-03-14T02:43:30;10.80;99.90
31765;DHT22;18338;53.240;8.798;2023-03-14T02:45:56;10.80;99.90
31765;DHT22;18338;53.240;8.798;2023-03-14T02:48:28;10.90;99.90
31765;DHT22;18338;53.240;8.798;2023-03-14T02:50:57;11.00;99.90
31765;DHT22;18338;53.240;8.798;2023-03-14T02:53:28;11.00;99.90
31765;DHT22;18338;53.240;8.798;2023-03-14T02:55:55;10.90;99.90
31765;DHT22;18338;53.240;8.798;2023-03-14T02:58:22;11.00;99.90
31765;DHT22;18338;53.240;8.798;2023-03-14T03:00:49;11.00;99.90
31765;DHT22;18338;53.240;8.798;2023-03-14T03:03:16;11.00;99.90
31765;DHT22;18338;53.240;8.798;2023-03-14T03:05:42;11.00;99.90
31765;DHT22;18338;53.240;8.798;2023-03-14T03:08:10;11.00;99.90
31765;DHT22;18338;53.240;8.798;2023-03-14T03:10:37;11.10;99.90
31765;DHT22;18338;53.240;8.798;2023-03-14T03:13:03;11.20;99.90
31765;DHT22;18338;53.240;8.798;2023-03-14T03:15:30;11.20;99.90
31765;DHT22;18338;53.240;8.798;2023-03-14T03:17:56;11.30;99.90
31765;DHT22;18338;53.240;8.798;2023-03-14T03:20:23;11.20;99.90
31765;DHT22;18338;53.240;8.798;2023-03-14T03:22:50;11.00;99.90
31765;DHT22;18338;53.240;8.798;2023-03-14T03:25:17;11.00;99.90
31765;DHT22;18338;53.240;8.798;2023-03-14T03:27:43;10.90;99.90
31765;DHT22;18338;53.240;8.798;2023-03-14T03:30:11;10.80;99.90
31765;DHT22;18338;53.240;8.798;2023-03-14T03:32:37;10.80;99.90
31765;DHT22;18338;53.240;8.798;2023-03-14T03:35:04;10.80;99.90
31765;DHT22;18338;53.240;8.798;2023-03-14T03:37:32;10.80;99.90
31765;DHT22;18338;53.240;8.798;2023-03-14T03:39:59;10.90;99.90
31765;DHT22;18338;53.240;8.798;2023-03-14T03:42:27;11.00;99.90
31765;DHT22;18338;53.240;8.798;2023-03-14T03:44:54;11.00;99.90
31765;DHT22;18338;53.240;8.798;2023-03-14T03:47:20;10.90;99.90
31765;DHT22;18338;53.240;8.798;2023-03-14T03:49:47;11.00;99.90
31765;DHT22;18338;53.240;8.798;2023-03-14T03:52:13;11.00;99.90
31765;DHT22;18338;53.240;8.798;2023-03-14T03:54:40;10.80;99.90
31765;DHT22;18338;53.240;8.798;2023-03-14T03:57:07;10.50;99.90
31765;DHT22;18338;53.240;8.798;2023-03-14T03:59:33;10.30;99.90
31765;DHT22;18338;53.240;8.798;2023-03-14T04:02:01;10.00;99.90
31765;DHT22;18338;53.240;8.798;2023-03-14T04:04:28;9.80;99.90
31765;DHT22;18338;53.240;8.798;2023-03-14T04:06:55;9.70;99.90
31765;DHT22;18338;53.240;8.798;2023-03-14T04:09:21;9.60;99.90
31765;DHT22;18338;53.240;8.798;2023-03-14T04:11:48;9.60;99.90
31765;DHT22;18338;53.240;8.798;2023-03-14T04:14:15;9.60;99.90
31765;DHT22;18338;53.240;8.798;2023-03-14T04:16:41;9.60;99.90
31765;DHT22;18338;53.240;8.798;2023-03-14T04:19:08;9.60;99.90
31765;DHT22;18338;53.240;8.798;2023-03-14T04:21:35;9.60;99.90
31765;DHT22;18338;53.240;8.798;2023-03-14T04:24:01;9.60;99.90
31765;DHT22;18338;53.240;8.798;2023-03-14T04:26:28;9.50;99.90
31765;DHT22;18338;53.240;8.798;2023-03-14T04:28:54;9.50;99.90
31765;DHT22;18338;53.240;8.798;2023-03-14T04:31:22;9.50;99.90
31765;DHT22;18338;53.240;8.798;2023-03-14T04:33:48;9.60;99.90
31765;DHT22;18338;53.240;8.798;2023-03-14T04:36:15;9.60;99.90
31765;DHT22;18338;53.240;8.798;2023-03-14T04:38:42;9.70;99.90
31765;DHT22;18338;53.240;8.798;2023-03-14T04:41:09;9.60;99.90
31765;DHT22;18338;53.240;8.798;2023-03-14T04:43:35;9.70;99.90
31765;DHT22;18338;53.240;8.798;2023-03-14T04:46:02;9.70;99.90
31765;DHT22;18338;53.240;8.798;2023-03-14T04:48:29;9.70;99.90
31765;DHT22;18338;53.240;8.798;2023-03-14T04:50:56;9.70;99.90
31765;DHT22;18338;53.240;8.798;2023-03-14T04:53:22;9.70;99.90
31765;DHT22;18338;53.240;8.798;2023-03-14T04:55:53;9.70;99.90
31765;DHT22;18338;53.240;8.798;2023-03-14T04:58:21;9.80;99.90
31765;DHT22;18338;53.240;8.798;2023-03-14T05:00:48;9.90;99.90
31765;DHT22;18338;53.240;8.798;2023-03-14T05:03:17;9.90;99.90
31765;DHT22;18338;53.240;8.798;2023-03-14T05:05:44;9.90;99.90
31765;DHT22;18338;53.240;8.798;2023-03-14T05:08:11;9.90;99.90
31765;DHT22;18338;53.240;8.798;2023-03-14T05:10:38;9.90;99.90
31765;DHT22;18338;53.240;8.798;2023-03-14T05:13:04;9.90;99.90
31765;DHT22;18338;53.240;8.798;2023-03-14T05:15:31;9.90;99.90
31765;DHT22;18338;53.240;8.798;2023-03-14T05:17:58;9.90;99.90
31765;DHT22;18338;53.240;8.798;2023-03-14T05:20:25;9.80;99.90
31765;DHT22;18338;53.240;8.798;2023-03-14T05:22:52;9.80;99.90
31765;DHT22;18338;53.240;8.798;2023-03-14T05:25:18;9.80;99.90
31765;DHT22;18338;53.240;8.798;2023-03-14T05:27:45;9.70;99.90
31765;DHT22;18338;53.240;8.798;2023-03-14T05:30:12;9.70;99.90
31765;DHT22;18338;53.240;8.798;2023-03-14T05:32:38;9.60;99.90
31765;DHT22;18338;53.240;8.798;2023-03-14T05:35:05;9.50;99.90
31765;DHT22;18338;53.240;8.798;2023-03-14T05:37:33;9.50;99.90
31765;DHT22;18338;53.240;8.798;2023-03-14T05:40:00;9.40;99.90
31765;DHT22;18338;53.240;8.798;2023-03-14T05:42:27;9.40;99.90
31765;DHT22;18338;53.240;8.798;2023-03-14T05:44:56;9.40;99.90
31765;DHT22;18338;53.240;8.798;2023-03-14T05:47:23;9.40;99.90
31765;DHT22;18338;53.240;8.798;2023-03-14T05:49:49;9.50;99.90
31765;DHT22;18338;53.240;8.798;2023-03-14T05:52:16;9.60;99.90
31765;DHT22;18338;53.240;8.798;2023-03-14T05:54:42;9.70;99.90
31765;DHT22;18338;53.240;8.798;2023-03-14T05:57:09;9.60;99.90
31765;DHT22;18338;53.240;8.798;2023-03-14T05:59:36;9.60;99.90
31765;DHT22;18338;53.240;8.798;2023-03-14T06:02:02;9.60;99.90
31765;DHT22;18338;53.240;8.798;2023-03-14T06:04:29;9.70;99.90
31765;DHT22;18338;53.240;8.798;2023-03-14T06:06:56;9.80;99.90
31765;DHT22;18338;53.240;8.798;2023-03-14T06:09:22;9.80;99.90
31765;DHT22;18338;53.240;8.798;2023-03-14T06:11:50;9.80;99.90
31765;DHT22;18338;53.240;8.798;2023-03-14T06:14:17;9.90;99.90
31765;DHT22;18338;53.240;8.798;2023-03-14T06:16:44;9.90;99.90
31765;DHT22;18338;53.240;8.798;2023-03-14T06:19:11;10.00;99.90
31765;DHT22;18338;53.240;8.798;2023-03-14T06:21:38;10.00;99.90
31765;DHT22;18338;53.240;8.798;2023-03-14T06:24:05;10.10;99.90
31765;DHT22;18338;53.240;8.798;2023-03-14T06:26:32;10.10;99.90
31765;DHT22;18338;53.240;8.798;2023-03-14T06:28:59;10.10;99.90
31765;DHT22;18338;53.240;8.798;2023-03-14T06:31:33;10.10;99.90
31765;DHT22;18338;53.240;8.798;2023-03-14T06:33:59;10.10;99.90
31765;DHT22;18338;53.240;8.798;2023-03-14T06:36:26;10.10;99.90
31765;DHT22;18338;53.240;8.798;2023-03-14T06:38:52;10.10;99.90
31765;DHT22;18338;53.240;8.798;2023-03-14T06:41:19;10.10;99.90
31765;DHT22;18338;53.240;8.798;2023-03-14T06:43:46;10.10;99.90
31765;DHT22;18338;53.240;8.798;2023-03-14T06:46:12;10.00;99.90
31765;DHT22;18338;53.240;8.798;2023-03-14T06:48:39;9.90;99.90
31765;DHT22;18338;53.240;8.798;2023-03-14T06:51:06;9.80;99.90
31765;DHT22;18338;53.240;8.798;2023-03-14T06:53:33;9.80;99.90
31765;DHT22;18338;53.240;8.798;2023-03-14T06:56:01;9.80;99.90
31765;DHT22;18338;53.240;8.798;2023-03-14T06:58:27;9.70;99.90
31765;DHT22;18338;53.240;8.798;2023-03-14T07:00:54;9.80;99.90
31765;DHT22;18338;53.240;8.798;2023-03-14T07:03:21;9.90;99.90
31765;DHT22;18338;53.240;8.798;2023-03-14T07:05:47;9.90;99.90
31765;DHT22;18338;53.240;8.798;2023-03-14T07:08:14;10.00;99.90
31765;DHT22;18338;53.240;8.798;2023-03-14T07:10:40;10.00;99.90
31765;DHT22;18338;53.240;8.798;2023-03-14T07:13:07;10.10;99.90
31765;DHT22;18338;53.240;8.798;2023-03-14T07:15:34;10.20;99.90
31765;DHT22;18338;53.240;8.798;2023-03-14T07:18:01;10.30;99.90
31765;DHT22;18338;53.240;8.798;2023-03-14T07:20:27;10.30;99.90
31765;DHT22;18338;53.240;8.798;2023-03-14T07:22:55;10.40;99.90
31765;DHT22;18338;53.240;8.798;2023-03-14T07:25:22;10.50;99.90
31765;DHT22;18338;53.240;8.798;2023-03-14T07:27:48;10.60;99.90
31765;DHT22;18338;53.240;8.798;2023-03-14T07:30:15;10.70;99.90
31765;DHT22;18338;53.240;8.798;2023-03-14T07:32:42;10.80;99.90
31765;DHT22;18338;53.240;8.798;2023-03-14T07:35:09;10.80;99.90
31765;DHT22;18338;53.240;8.798;2023-03-14T07:37:35;10.80;99.90
31765;DHT22;18338;53.240;8.798;2023-03-14T07:40:02;10.70;99.90
31765;DHT22;18338;53.240;8.798;2023-03-14T07:42:31;10.60;99.90
31765;DHT22;18338;53.240;8.798;2023-03-14T07:44:58;10.60;99.90
31765;DHT22;18338;53.240;8.798;2023-03-14T07:47:25;10.70;99.90
31765;DHT22;18338;53.240;8.798;2023-03-14T07:49:52;10.70;99.90
31765;DHT22;18338;53.240;8.798;2023-03-14T07:52:18;10.70;99.90
31765;DHT22;18338;53.240;8.798;2023-03-14T07:54:45;10.70;99.90
31765;DHT22;18338;53.240;8.798;2023-03-14T07:57:12;10.90;99.90
31765;DHT22;18338;53.240;8.798;2023-03-14T07:59:39;10.80;99.90
31765;DHT22;18338;53.240;8.798;2023-03-14T08:02:11;10.80;99.90
31765;DHT22;18338;53.240;8.798;2023-03-14T08:04:39;10.80;99.90
31765;DHT22;18338;53.240;8.798;2023-03-14T08:07:06;10.60;99.90
31765;DHT22;18338;53.240;8.798;2023-03-14T08:09:32;10.30;99.90
31765;DHT22;18338;53.240;8.798;2023-03-14T08:11:59;10.20;99.90
31765;DHT22;18338;53.240;8.798;2023-03-14T08:14:26;10.00;99.90
31765;DHT22;18338;53.240;8.798;2023-03-14T08:16:55;10.00;99.90
31765;DHT22;18338;53.240;8.798;2023-03-14T08:19:21;10.00;99.90
31765;DHT22;18338;53.240;8.798;2023-03-14T08:21:48;10.00;99.90
31765;DHT22;18338;53.240;8.798;2023-03-14T08:24:16;10.00;99.90
31765;DHT22;18338;53.240;8.798;2023-03-14T08:26:44;10.00;99.90
31765;DHT22;18338;53.240;8.798;2023-03-14T08:29:10;10.00;99.90
31765;DHT22;18338;53.240;8.798;2023-03-14T08:31:39;10.00;99.90
31765;DHT22;18338;53.240;8.798;2023-03-14T08:34:05;10.00;99.90
31765;DHT22;18338;53.240;8.798;2023-03-14T08:36:33;10.00;99.90
31765;DHT22;18338;53.240;8.798;2023-03-14T08:39:00;10.10;99.90
31765;DHT22;18338;53.240;8.798;2023-03-14T08:41:27;10.10;99.90
31765;DHT22;18338;53.240;8.798;2023-03-14T08:43:54;10.10;99.90
31765;DHT22;18338;53.240;8.798;2023-03-14T08:46:20;10.10;99.90
31765;DHT22;18338;53.240;8.798;2023-03-14T08:48:47;10.10;99.90
31765;DHT22;18338;53.240;8.798;2023-03-14T08:51:14;10.20;99.90
31765;DHT22;18338;53.240;8.798;2023-03-14T08:53:41;10.10;99.90
31765;DHT22;18338;53.240;8.798;2023-03-14T08:56:08;10.00;99.90
31765;DHT22;18338;53.240;8.798;2023-03-14T08:58:37;10.00;99.90
31765;DHT22;18338;53.240;8.798;2023-03-14T09:01:05;9.10;99.90
31765;DHT22;18338;53.240;8.798;2023-03-14T09:03:32;8.20;99.90
31765;DHT22;18338;53.240;8.798;2023-03-14T09:06:07;7.70;99.90
31765;DHT22;18338;53.240;8.798;2023-03-14T09:08:34;7.30;99.90
31765;DHT22;18338;53.240;8.798;2023-03-14T09:11:07;7.30;99.90
31765;DHT22;18338;53.240;8.798;2023-03-14T09:13:35;7.20;99.90
31765;DHT22;18338;53.240;8.798;2023-03-14T09:16:02;6.90;99.90
31765;DHT22;18338;53.240;8.798;2023-03-14T09:18:28;6.90;99.90
31765;DHT22;18338;53.240;8.798;2023-03-14T09:20:56;6.90;99.90
31765;DHT22;18338;53.240;8.798;2023-03-14T09:23:22;6.80;99.90
31765;DHT22;18338;53.240;8.798;2023-03-14T09:25:49;6.70;99.90
31765;DHT22;18338;53.240;8.798;2023-03-14T09:28:15;6.60;99.90
31765;DHT22;18338;53.240;8.798;2023-03-14T09:30:42;6.50;99.90
31765;DHT22;18338;53.240;8.798;2023-03-14T09:33:09;6.40;99.90
31765;DHT22;18338;53.240;8.798;2023-03-14T09:35:36;6.30;99.90
31765;DHT22;18338;53.240;8.798;2023-03-14T09:38:03;6.10;99.90
31765;DHT22;18338;53.240;8.798;2023-03-14T09:40:34;6.00;99.90
31765;DHT22;18338;53.240;8.798;2023-03-14T09:43:02;6.00;99.90
31765;DHT22;18338;53.240;8.798;2023-03-14T09:45:34;5.70;99.90
31765;DHT22;18338;53.240;8.798;2023-03-14T09:48:04;5.60;99.90
31765;DHT22;18338;53.240;8.798;2023-03-14T09:50:38;5.20;99.90
31765;DHT22;18338;53.240;8.798;2023-03-14T09:53:11;4.90;99.90
31765;DHT22;18338;53.240;8.798;2023-03-14T09:55:39;4.70;99.90
31765;DHT22;18338;53.240;8.798;2023-03-14T09:58:14;4.60;99.90
31765;DHT22;18338;53.240;8.798;2023-03-14T10:00:42;4.50;99.90
31765;DHT22;18338;53.240;8.798;2023-03-14T10:05:42;4.60;99.90
31765;DHT22;18338;53.240;8.798;2023-03-14T10:08:13;4.60;99.90
31765;DHT22;18338;53.240;8.798;2023-03-14T10:10:40;4.60;99.90
31765;DHT22;18338;53.240;8.798;2023-03-14T10:13:17;4.70;99.90
31765;DHT22;18338;53.240;8.798;2023-03-14T10:16:02;4.80;99.90
31765;DHT22;18338;53.240;8.798;2023-03-14T10:18:31;4.90;99.90
31765;DHT22;18338;53.240;8.798;2023-03-14T10:21:28;4.90;99.90
31765;DHT22;18338;53.240;8.798;2023-03-14T10:24:18;5.00;99.90
31765;DHT22;18338;53.240;8.798;2023-03-14T10:26:49;5.00;99.90
31765;DHT22;18338;53.240;8.798;2023-03-14T10:29:16;5.10;99.90
31765;DHT22;18338;53.240;8.798;2023-03-14T10:31:51;5.10;99.90
31765;DHT22;18338;53.240;8.798;2023-03-14T10:34:23;5.10;99.90
31765;DHT22;18338;53.240;8.798;2023-03-14T10:36:56;5.30;99.90
31765;DHT22;18338;53.240;8.798;2023-03-14T10:39:27;5.40;99.90
31765;DHT22;18338;53.240;8.798;2023-03-14T10:44:51;5.40;99.90
31765;DHT22;18338;53.240;8.798;2023-03-14T10:47:23;5.40;99.90
31765;DHT22;18338;53.240;8.798;2023-03-14T10:49:50;5.30;99.90
31765;DHT22;18338;53.240;8.798;2023-03-14T10:52:21;5.30;99.90
31765;DHT22;18338;53.240;8.798;2023-03-14T10:55:02;5.20;99.90
31765;DHT22;18338;53.240;8.798;2023-03-14T10:57:29;5.20;99.90
31765;DHT22;18338;53.240;8.798;2023-03-14T10:59:56;5.20;99.90
31765;DHT22;18338;53.240;8.798;2023-03-14T11:02:39;5.20;99.90
31765;DHT22;18338;53.240;8.798;2023-03-14T11:10:54;5.40;99.90
31765;DHT22;18338;53.240;8.798;2023-03-14T11:14:12;5.50;99.90
31765;DHT22;18338;53.240;8.798;2023-03-14T11:22:49;5.80;99.90
31765;DHT22;18338;53.240;8.798;2023-03-14T11:28:36;6.40;99.90
31765;DHT22;18338;53.240;8.798;2023-03-14T11:31:18;6.80;99.90
31765;DHT22;18338;53.240;8.798;2023-03-14T11:33:53;7.50;99.90
31765;DHT22;18338;53.240;8.798;2023-03-14T11:36:27;7.60;99.90
31765;DHT22;18338;53.240;8.798;2023-03-14T11:38:57;8.10;99.90
31765;DHT22;18338;53.240;8.798;2023-03-14T11:41:34;8.70;99.90
31765;DHT22;18338;53.240;8.798;2023-03-14T11:44:09;9.60;99.90
31765;DHT22;18338;53.240;8.798;2023-03-14T11:49:41;9.80;99.90
31765;DHT22;18338;53.240;8.798;2023-03-14T11:52:13;10.40;99.90
31765;DHT22;18338;53.240;8.798;2023-03-14T11:54:53;9.70;99.90
31765;DHT22;18338;53.240;8.798;2023-03-14T11:57:22;9.20;99.90
31765;DHT22;18338;53.240;8.798;2023-03-14T12:08:04;8.10;99.90
31765;DHT22;18338;53.240;8.798;2023-03-14T12:10:55;7.80;99.90
31765;DHT22;18338;53.240;8.798;2023-03-14T12:13:29;7.50;99.90
31765;DHT22;18338;53.240;8.798;2023-03-14T12:15:58;7.60;99.90
31765;DHT22;18338;53.240;8.798;2023-03-14T12:21:05;7.10;99.90
31765;DHT22;18338;53.240;8.798;2023-03-14T12:23:53;7.00;99.90
31765;DHT22;18338;53.240;8.798;2023-03-14T12:26:24;7.20;99.90
31765;DHT22;18338;53.240;8.798;2023-03-14T12:34:25;8.40;99.90
31765;DHT22;18338;53.240;8.798;2023-03-14T12:39:50;8.40;99.90
31765;DHT22;18338;53.240;8.798;2023-03-14T12:42:58;9.10;99.90
31765;DHT22;18338;53.240;8.798;2023-03-14T12:45:33;10.00;99.90
31765;DHT22;18338;53.240;8.798;2023-03-14T12:48:23;10.30;99.90
31765;DHT22;18338;53.240;8.798;2023-03-14T12:50:56;10.70;99.90
31765;DHT22;18338;53.240;8.798;2023-03-14T12:56:45;10.50;99.00
31765;DHT22;18338;53.240;8.798;2023-03-14T12:59:28;9.50;99.90
31765;DHT22;18338;53.240;8.798;2023-03-14T13:04:45;9.90;99.90
31765;DHT22;18338;53.240;8.798;2023-03-14T13:13:14;9.20;99.90
31765;DHT22;18338;53.240;8.798;2023-03-14T13:15:44;8.20;99.90
31765;DHT22;18338;53.240;8.798;2023-03-14T13:18:18;7.90;99.90
31765;DHT22;18338;53.240;8.798;2023-03-14T13:23:36;7.70;99.90
31765;DHT22;18338;53.240;8.798;2023-03-14T13:26:09;7.80;99.90
31765;DHT22;18338;53.240;8.798;2023-03-14T13:28:37;7.70;99.90
31765;DHT22;18338;53.240;8.798;2023-03-14T13:31:04;7.70;99.90
31765;DHT22;18338;53.240;8.798;2023-03-14T13:33:33;7.40;99.90
31765;DHT22;18338;53.240;8.798;2023-03-14T13:36:03;7.50;99.90
31765;DHT22;18338;53.240;8.798;2023-03-14T13:38:33;7.90;99.90
31765;DHT22;18338;53.240;8.798;2023-03-14T13:41:05;7.80;99.90
31765;DHT22;18338;53.240;8.798;2023-03-14T13:43:34;8.80;99.90
31765;DHT22;18338;53.240;8.798;2023-03-14T13:46:05;9.90;99.90
31765;DHT22;18338;53.240;8.798;2023-03-14T13:48:35;9.40;99.90
31765;DHT22;18338;53.240;8.798;2023-03-14T13:51:06;9.10;99.90
31765;DHT22;18338;53.240;8.798;2023-03-14T13:53:49;8.50;99.90
31765;DHT22;18338;53.240;8.798;2023-03-14T13:56:18;7.90;99.90
31765;DHT22;18338;53.240;8.798;2023-03-14T13:58:46;7.40;99.90
31765;DHT22;18338;53.240;8.798;2023-03-14T14:01:19;7.70;99.90
31765;DHT22;18338;53.240;8.798;2023-03-14T14:03:49;10.50;99.90
31765;DHT22;18338;53.240;8.798;2023-03-14T14:06:35;11.90;97.70
31765;DHT22;18338;53.240;8.798;2023-03-14T14:11:56;8.40;98.20
31765;DHT22;18338;53.240;8.798;2023-03-14T14:17:13;10.90;98.20
31765;DHT22;18338;53.240;8.798;2023-03-14T14:19:42;12.70;94.90
31765;DHT22;18338;53.240;8.798;2023-03-14T14:22:10;12.80;94.40
31765;DHT22;18338;53.240;8.798;2023-03-14T14:24:37;10.80;94.30
31765;DHT22;18338;53.240;8.798;2023-03-14T14:27:17;9.10;98.90
31765;DHT22;18338;53.240;8.798;2023-03-14T14:29:44;8.10;99.90
31765;DHT22;18338;53.240;8.798;2023-03-14T14:32:23;7.40;99.90
31765;DHT22;18338;53.240;8.798;2023-03-14T14:35:00;7.50;99.90
31765;DHT22;18338;53.240;8.798;2023-03-14T14:37:29;8.20;99.90
31765;DHT22;18338;53.240;8.798;2023-03-14T14:40:08;8.80;99.90
31765;DHT22;18338;53.240;8.798;2023-03-14T14:42:40;8.60;99.90
31765;DHT22;18338;53.240;8.798;2023-03-14T14:45:12;8.30;99.90
31765;DHT22;18338;53.240;8.798;2023-03-14T14:47:50;8.80;99.90
31765;DHT22;18338;53.240;8.798;2023-03-14T14:50:33;9.20;99.90
31765;DHT22;18338;53.240;8.798;2023-03-14T14:53:03;9.30;99.40
31765;DHT22;18338;53.240;8.798;2023-03-14T14:55:38;9.20;98.30
31765;DHT22;18338;53.240;8.798;2023-03-14T15:00:59;8.70;99.50
31765;DHT22;18338;53.240;8.798;2023-03-14T15:03:32;9.00;99.90
31765;DHT22;18338;53.240;8.798;2023-03-14T15:06:01;9.10;99.90
31765;DHT22;18338;53.240;8.798;2023-03-14T15:08:28;8.90;99.80
31765;DHT22;18338;53.240;8.798;2023-03-14T15:10:56;8.40;99.90
31765;DHT22;18338;53.240;8.798;2023-03-14T15:13:23;8.00;99.90
31765;DHT22;18338;53.240;8.798;2023-03-14T15:15:50;7.70;99.90
31765;DHT22;18338;53.240;8.798;2023-03-14T15:18:29;7.30;99.90
31765;DHT22;18338;53.240;8.798;2023-03-14T15:20:57;7.10;99.90
31765;DHT22;18338;53.240;8.798;2023-03-14T15:23:24;6.70;99.90
31765;DHT22;18338;53.240;8.798;2023-03-14T15:25:52;6.50;99.90
31765;DHT22;18338;53.240;8.798;2023-03-14T15:28:24;6.40;99.90
31765;DHT22;18338;53.240;8.798;2023-03-14T15:30:55;6.50;99.90
31765;DHT22;18338;53.240;8.798;2023-03-14T15:33:22;6.80;99.90
31765;DHT22;18338;53.240;8.798;2023-03-14T15:35:49;7.50;99.90
31765;DHT22;18338;53.240;8.798;2023-03-14T15:38:19;7.90;99.90
31765;DHT22;18338;53.240;8.798;2023-03-14T15:40:49;8.20;99.90
31765;DHT22;18338;53.240;8.798;2023-03-14T15:43:16;8.10;99.90
31765;DHT22;18338;53.240;8.798;2023-03-14T15:45:44;8.10;99.90
31765;DHT22;18338;53.240;8.798;2023-03-14T15:48:15;7.80;99.90
31765;DHT22;18338;53.240;8.798;2023-03-14T15:50:42;7.60;99.90
31765;DHT22;18338;53.240;8.798;2023-03-14T15:53:10;7.80;99.90
31765;DHT22;18338;53.240;8.798;2023-03-14T15:55:37;8.30;99.90
31765;DHT22;18338;53.240;8.798;2023-03-14T15:58:05;9.20;99.90
31765;DHT22;18338;53.240;8.798;2023-03-14T16:00:31;9.40;99.90
31765;DHT22;18338;53.240;8.798;2023-03-14T16:02:58;9.10;99.90
31765;DHT22;18338;53.240;8.798;2023-03-14T16:05:25;8.50;99.90
31765;DHT22;18338;53.240;8.798;2023-03-14T16:07:51;7.60;99.90
31765;DHT22;18338;53.240;8.798;2023-03-14T16:10:18;7.00;99.90
31765;DHT22;18338;53.240;8.798;2023-03-14T16:15:32;6.30;99.90
31765;DHT22;18338;53.240;8.798;2023-03-14T16:17:58;6.20;99.90
31765;DHT22;18338;53.240;8.798;2023-03-14T16:20:31;6.20;99.90
31765;DHT22;18338;53.240;8.798;2023-03-14T16:23:13;6.10;99.90
31765;DHT22;18338;53.240;8.798;2023-03-14T16:25:43;6.10;99.90
31765;DHT22;18338;53.240;8.798;2023-03-14T16:28:11;6.00;99.90
31765;DHT22;18338;53.240;8.798;2023-03-14T16:30:38;6.00;99.90
31765;DHT22;18338;53.240;8.798;2023-03-14T16:33:05;6.00;99.90
31765;DHT22;18338;53.240;8.798;2023-03-14T16:35:39;5.90;99.90
31765;DHT22;18338;53.240;8.798;2023-03-14T16:38:05;5.90;99.90
31765;DHT22;18338;53.240;8.798;2023-03-14T16:40:32;5.80;99.90
31765;DHT22;18338;53.240;8.798;2023-03-14T16:43:00;5.50;99.90
31765;DHT22;18338;53.240;8.798;2023-03-14T16:45:41;5.40;99.90
31765;DHT22;18338;53.240;8.798;2023-03-14T16:48:08;5.20;99.90
31765;DHT22;18338;53.240;8.798;2023-03-14T16:50:35;5.10;99.90
31765;DHT22;18338;53.240;8.798;2023-03-14T16:53:02;5.00;99.90
31765;DHT22;18338;53.240;8.798;2023-03-14T16:55:29;5.00;99.90
31765;DHT22;18338;53.240;8.798;2023-03-14T16:57:56;5.00;99.90
31765;DHT22;18338;53.240;8.798;2023-03-14T17:00:22;5.10;99.90
31765;DHT22;18338;53.240;8.798;2023-03-14T17:02:49;5.10;99.90
31765;DHT22;18338;53.240;8.798;2023-03-14T17:05:16;5.20;99.90